sensor_id;sensor_type;location;lat;lon;timestamp;P1;durP1;ratioP1;P2;durP2;ratioP2
67585;SDS011;55785;47.946;20.540;2023-05-07T00:00:02;8.55;;;5.18;;
67585;SDS011;55785;47.946;20.540;2023-05-07T00:02:29;7.68;;;5.15;;
67585;SDS011;55785;47.946;20.540;2023-05-07T00:04:54;7.10;;;5.38;;
67585;SDS011;55785;47.946;20.540;2023-05-07T00:07:20;6.15;;;5.20;;
67585;SDS011;55785;47.946;20.540;2023-05-07T00:09:45;8.82;;;5.88;;
67585;SDS011;55785;47.946;20.540;2023-05-07T00:12:10;6.07;;;4.53;;
67585;SDS011;55785;47.946;20.540;2023-05-07T00:14:36;7.05;;;5.50;;
67585;SDS011;55785;47.946;20.540;2023-05-07T00:17:01;6.93;;;5.53;;
67585;SDS011;55785;47.946;20.540;2023-05-07T00:19:27;5.68;;;4.85;;
67585;SDS011;55785;47.946;20.540;2023-05-07T00:21:52;6.00;;;4.95;;
67585;SDS011;55785;47.946;20.540;2023-05-07T00:24:17;4.57;;;4.05;;
67585;SDS011;55785;47.946;20.540;2023-05-07T00:26:43;7.25;;;4.63;;
67585;SDS011;55785;47.946;20.540;2023-05-07T00:29:08;6.57;;;4.50;;
67585;SDS011;55785;47.946;20.540;2023-05-07T00:31:33;6.35;;;4.57;;
67585;SDS011;55785;47.946;20.540;2023-05-07T00:33:59;8.52;;;4.95;;
67585;SDS011;55785;47.946;20.540;2023-05-07T00:36:24;7.20;;;5.20;;
67585;SDS011;55785;47.946;20.540;2023-05-07T00:38:49;7.75;;;4.90;;
67585;SDS011;55785;47.946;20.540;2023-05-07T00:41:15;10.10;;;5.10;;
67585;SDS011;55785;47.946;20.540;2023-05-07T00:43:40;8.77;;;5.03;;
67585;SDS011;55785;47.946;20.540;2023-05-07T00:46:05;8.93;;;4.72;;
67585;SDS011;55785;47.946;20.540;2023-05-07T00:48:31;8.43;;;4.90;;
67585;SDS011;55785;47.946;20.540;2023-05-07T00:50:57;5.30;;;4.43;;
67585;SDS011;55785;47.946;20.540;2023-05-07T00:53:22;6.55;;;4.57;;
67585;SDS011;55785;47.946;20.540;2023-05-07T00:55:48;6.28;;;4.93;;
67585;SDS011;55785;47.946;20.540;2023-05-07T00:58:13;6.13;;;4.55;;
67585;SDS011;55785;47.946;20.540;2023-05-07T01:00:38;6.60;;;4.90;;
67585;SDS011;55785;47.946;20.540;2023-05-07T01:03:04;6.78;;;4.90;;
67585;SDS011;55785;47.946;20.540;2023-05-07T01:05:30;5.97;;;4.65;;
67585;SDS011;55785;47.946;20.540;2023-05-07T01:07:55;6.82;;;4.95;;
67585;SDS011;55785;47.946;20.540;2023-05-07T01:10:21;6.70;;;5.07;;
67585;SDS011;55785;47.946;20.540;2023-05-07T01:12:47;6.72;;;4.95;;
67585;SDS011;55785;47.946;20.540;2023-05-07T01:15:14;8.85;;;5.10;;
67585;SDS011;55785;47.946;20.540;2023-05-07T01:17:41;6.07;;;5.00;;
67585;SDS011;55785;47.946;20.540;2023-05-07T01:20:07;7.55;;;4.80;;
67585;SDS011;55785;47.946;20.540;2023-05-07T01:22:34;6.22;;;4.85;;
67585;SDS011;55785;47.946;20.540;2023-05-07T01:25:01;6.22;;;4.70;;
67585;SDS011;55785;47.946;20.540;2023-05-07T01:27:27;6.35;;;5.35;;
67585;SDS011;55785;47.946;20.540;2023-05-07T01:29:52;7.68;;;5.40;;
67585;SDS011;55785;47.946;20.540;2023-05-07T01:35:05;7.78;;;5.10;;
67585;SDS011;55785;47.946;20.540;2023-05-07T01:37:32;6.90;;;5.22;;
67585;SDS011;55785;47.946;20.540;2023-05-07T01:39:58;7.50;;;5.43;;
67585;SDS011;55785;47.946;20.540;2023-05-07T01:42:24;9.52;;;5.30;;
67585;SDS011;55785;47.946;20.540;2023-05-07T01:44:50;6.60;;;4.65;;
67585;SDS011;55785;47.946;20.540;2023-05-07T01:47:15;6.45;;;5.22;;
67585;SDS011;55785;47.946;20.540;2023-05-07T01:49:41;6.32;;;5.15;;
67585;SDS011;55785;47.946;20.540;2023-05-07T01:52:07;8.13;;;5.20;;
67585;SDS011;55785;47.946;20.540;2023-05-07T01:54:33;6.75;;;5.65;;
67585;SDS011;55785;47.946;20.540;2023-05-07T01:56:58;8.02;;;5.55;;
67585;SDS011;55785;47.946;20.540;2023-05-07T01:59:24;7.20;;;5.15;;
67585;SDS011;55785;47.946;20.540;2023-05-07T02:01:49;7.85;;;5.13;;
67585;SDS011;55785;47.946;20.540;2023-05-07T02:04:14;9.30;;;5.30;;
67585;SDS011;55785;47.946;20.540;2023-05-07T02:06:40;8.98;;;5.35;;
67585;SDS011;55785;47.946;20.540;2023-05-07T02:09:05;8.25;;;5.93;;
67585;SDS011;55785;47.946;20.540;2023-05-07T02:11:30;6.22;;;5.20;;
67585;SDS011;55785;47.946;20.540;2023-05-07T02:13:56;7.43;;;5.57;;
67585;SDS011;55785;47.946;20.540;2023-05-07T02:16:21;6.75;;;5.35;;
67585;SDS011;55785;47.946;20.540;2023-05-07T02:18:46;8.50;;;5.60;;
67585;SDS011;55785;47.946;20.540;2023-05-07T02:21:12;10.10;;;5.70;;
67585;SDS011;55785;47.946;20.540;2023-05-07T02:23:37;9.52;;;5.32;;
67585;SDS011;55785;47.946;20.540;2023-05-07T02:26:03;10.57;;;6.18;;
67585;SDS011;55785;47.946;20.540;2023-05-07T02:28:28;7.22;;;5.38;;
67585;SDS011;55785;47.946;20.540;2023-05-07T02:30:54;9.98;;;5.53;;
67585;SDS011;55785;47.946;20.540;2023-05-07T02:33:19;7.65;;;5.68;;
67585;SDS011;55785;47.946;20.540;2023-05-07T02:35:44;6.38;;;5.25;;
67585;SDS011;55785;47.946;20.540;2023-05-07T02:38:10;8.95;;;5.85;;
67585;SDS011;55785;47.946;20.540;2023-05-07T02:40:35;7.40;;;5.63;;
67585;SDS011;55785;47.946;20.540;2023-05-07T02:43:01;7.07;;;5.68;;
67585;SDS011;55785;47.946;20.540;2023-05-07T02:45:26;8.43;;;6.20;;
67585;SDS011;55785;47.946;20.540;2023-05-07T02:47:52;7.85;;;5.40;;
67585;SDS011;55785;47.946;20.540;2023-05-07T02:50:17;7.10;;;5.57;;
67585;SDS011;55785;47.946;20.540;2023-05-07T02:52:42;7.25;;;5.40;;
67585;SDS011;55785;47.946;20.540;2023-05-07T02:55:08;7.25;;;5.22;;
67585;SDS011;55785;47.946;20.540;2023-05-07T02:57:33;7.55;;;5.72;;
67585;SDS011;55785;47.946;20.540;2023-05-07T02:59:59;6.53;;;5.32;;
67585;SDS011;55785;47.946;20.540;2023-05-07T03:02:24;8.35;;;5.43;;
67585;SDS011;55785;47.946;20.540;2023-05-07T03:04:49;6.82;;;5.25;;
67585;SDS011;55785;47.946;20.540;2023-05-07T03:07:14;6.60;;;5.40;;
67585;SDS011;55785;47.946;20.540;2023-05-07T03:09:39;8.23;;;5.30;;
67585;SDS011;55785;47.946;20.540;2023-05-07T03:12:05;9.45;;;5.15;;
67585;SDS011;55785;47.946;20.540;2023-05-07T03:14:30;6.93;;;5.60;;
67585;SDS011;55785;47.946;20.540;2023-05-07T03:16:56;8.52;;;5.53;;
67585;SDS011;55785;47.946;20.540;2023-05-07T03:19:21;7.35;;;5.57;;
67585;SDS011;55785;47.946;20.540;2023-05-07T03:21:46;8.77;;;5.68;;
67585;SDS011;55785;47.946;20.540;2023-05-07T03:24:12;8.00;;;5.50;;
67585;SDS011;55785;47.946;20.540;2023-05-07T03:26:37;9.95;;;5.40;;
67585;SDS011;55785;47.946;20.540;2023-05-07T03:29:02;7.88;;;5.20;;
67585;SDS011;55785;47.946;20.540;2023-05-07T03:31:28;9.18;;;5.18;;
67585;SDS011;55785;47.946;20.540;2023-05-07T03:33:54;7.18;;;4.93;;
67585;SDS011;55785;47.946;20.540;2023-05-07T03:36:21;7.05;;;5.60;;
67585;SDS011;55785;47.946;20.540;2023-05-07T03:38:47;8.32;;;5.43;;
67585;SDS011;55785;47.946;20.540;2023-05-07T03:41:13;7.07;;;5.28;;
67585;SDS011;55785;47.946;20.540;2023-05-07T03:43:38;9.70;;;5.47;;
67585;SDS011;55785;47.946;20.540;2023-05-07T03:46:04;7.13;;;5.80;;
67585;SDS011;55785;47.946;20.540;2023-05-07T03:48:29;8.15;;;5.43;;
67585;SDS011;55785;47.946;20.540;2023-05-07T03:50:55;7.60;;;5.50;;
67585;SDS011;55785;47.946;20.540;2023-05-07T03:53:22;10.18;;;5.57;;
67585;SDS011;55785;47.946;20.540;2023-05-07T03:55:47;11.15;;;5.60;;
67585;SDS011;55785;47.946;20.540;2023-05-07T03:58:12;8.35;;;5.60;;
67585;SDS011;55785;47.946;20.540;2023-05-07T04:00:38;10.73;;;5.15;;
67585;SDS011;55785;47.946;20.540;2023-05-07T04:03:04;7.50;;;5.68;;
67585;SDS011;55785;47.946;20.540;2023-05-07T04:05:30;6.18;;;4.80;;
67585;SDS011;55785;47.946;20.540;2023-05-07T04:07:55;6.75;;;4.80;;
67585;SDS011;55785;47.946;20.540;2023-05-07T04:10:22;7.78;;;4.95;;
67585;SDS011;55785;47.946;20.540;2023-05-07T04:12:47;7.60;;;4.85;;
67585;SDS011;55785;47.946;20.540;2023-05-07T04:15:13;5.47;;;4.72;;
67585;SDS011;55785;47.946;20.540;2023-05-07T04:17:38;6.05;;;4.97;;
67585;SDS011;55785;47.946;20.540;2023-05-07T04:20:04;7.03;;;5.13;;
67585;SDS011;55785;47.946;20.540;2023-05-07T04:22:29;8.98;;;5.30;;
67585;SDS011;55785;47.946;20.540;2023-05-07T04:24:55;7.63;;;4.97;;
67585;SDS011;55785;47.946;20.540;2023-05-07T04:27:20;7.60;;;5.10;;
67585;SDS011;55785;47.946;20.540;2023-05-07T04:29:45;10.55;;;5.03;;
67585;SDS011;55785;47.946;20.540;2023-05-07T04:32:11;6.90;;;4.95;;
67585;SDS011;55785;47.946;20.540;2023-05-07T04:34:36;6.70;;;5.22;;
67585;SDS011;55785;47.946;20.540;2023-05-07T04:37:01;6.68;;;4.80;;
67585;SDS011;55785;47.946;20.540;2023-05-07T04:39:27;7.07;;;4.93;;
67585;SDS011;55785;47.946;20.540;2023-05-07T04:41:52;5.90;;;4.60;;
67585;SDS011;55785;47.946;20.540;2023-05-07T04:44:17;9.88;;;4.80;;
67585;SDS011;55785;47.946;20.540;2023-05-07T04:46:43;5.70;;;4.57;;
67585;SDS011;55785;47.946;20.540;2023-05-07T04:49:08;5.88;;;4.82;;
67585;SDS011;55785;47.946;20.540;2023-05-07T04:51:33;6.20;;;4.57;;
67585;SDS011;55785;47.946;20.540;2023-05-07T04:53:59;5.50;;;4.57;;
67585;SDS011;55785;47.946;20.540;2023-05-07T04:56:26;8.10;;;4.85;;
67585;SDS011;55785;47.946;20.540;2023-05-07T04:58:52;6.82;;;4.90;;
67585;SDS011;55785;47.946;20.540;2023-05-07T05:01:18;6.72;;;4.55;;
67585;SDS011;55785;47.946;20.540;2023-05-07T05:03:43;5.80;;;4.50;;
67585;SDS011;55785;47.946;20.540;2023-05-07T05:06:09;5.55;;;4.82;;
67585;SDS011;55785;47.946;20.540;2023-05-07T05:08:35;7.03;;;4.80;;
67585;SDS011;55785;47.946;20.540;2023-05-07T05:11:01;5.63;;;4.40;;
67585;SDS011;55785;47.946;20.540;2023-05-07T05:13:27;5.35;;;4.70;;
67585;SDS011;55785;47.946;20.540;2023-05-07T05:15:52;6.15;;;4.25;;
67585;SDS011;55785;47.946;20.540;2023-05-07T05:18:17;6.03;;;4.18;;
67585;SDS011;55785;47.946;20.540;2023-05-07T05:20:43;6.70;;;3.90;;
67585;SDS011;55785;47.946;20.540;2023-05-07T05:23:08;4.85;;;3.50;;
67585;SDS011;55785;47.946;20.540;2023-05-07T05:25:33;4.75;;;4.00;;
67585;SDS011;55785;47.946;20.540;2023-05-07T05:27:59;5.75;;;3.90;;
67585;SDS011;55785;47.946;20.540;2023-05-07T05:30:24;5.82;;;3.90;;
67585;SDS011;55785;47.946;20.540;2023-05-07T05:32:49;6.15;;;3.75;;
67585;SDS011;55785;47.946;20.540;2023-05-07T05:35:15;12.60;;;4.93;;
67585;SDS011;55785;47.946;20.540;2023-05-07T05:37:40;5.28;;;3.95;;
67585;SDS011;55785;47.946;20.540;2023-05-07T05:40:06;4.28;;;3.40;;
67585;SDS011;55785;47.946;20.540;2023-05-07T05:42:31;4.70;;;3.50;;
67585;SDS011;55785;47.946;20.540;2023-05-07T05:44:57;4.07;;;3.60;;
67585;SDS011;55785;47.946;20.540;2023-05-07T05:47:22;5.03;;;3.42;;
67585;SDS011;55785;47.946;20.540;2023-05-07T05:49:47;4.65;;;3.30;;
67585;SDS011;55785;47.946;20.540;2023-05-07T05:52:13;4.95;;;3.97;;
67585;SDS011;55785;47.946;20.540;2023-05-07T05:54:38;8.10;;;5.40;;
67585;SDS011;55785;47.946;20.540;2023-05-07T05:57:04;7.70;;;5.82;;
67585;SDS011;55785;47.946;20.540;2023-05-07T05:59:29;7.50;;;5.90;;
67585;SDS011;55785;47.946;20.540;2023-05-07T06:01:54;10.50;;;7.88;;
67585;SDS011;55785;47.946;20.540;2023-05-07T06:04:20;13.32;;;8.38;;
67585;SDS011;55785;47.946;20.540;2023-05-07T06:06:45;11.75;;;8.05;;
67585;SDS011;55785;47.946;20.540;2023-05-07T06:09:10;12.90;;;8.57;;
67585;SDS011;55785;47.946;20.540;2023-05-07T06:11:36;14.70;;;9.73;;
67585;SDS011;55785;47.946;20.540;2023-05-07T06:14:01;13.65;;;9.70;;
67585;SDS011;55785;47.946;20.540;2023-05-07T06:16:27;15.93;;;9.80;;
67585;SDS011;55785;47.946;20.540;2023-05-07T06:18:52;14.02;;;9.70;;
67585;SDS011;55785;47.946;20.540;2023-05-07T06:21:17;15.15;;;9.57;;
67585;SDS011;55785;47.946;20.540;2023-05-07T06:23:43;13.23;;;10.15;;
67585;SDS011;55785;47.946;20.540;2023-05-07T06:26:08;16.05;;;9.68;;
67585;SDS011;55785;47.946;20.540;2023-05-07T06:28:33;13.40;;;9.63;;
67585;SDS011;55785;47.946;20.540;2023-05-07T06:31:10;12.18;;;9.50;;
67585;SDS011;55785;47.946;20.540;2023-05-07T06:33:44;16.10;;;10.35;;
67585;SDS011;55785;47.946;20.540;2023-05-07T06:36:09;16.80;;;9.75;;
67585;SDS011;55785;47.946;20.540;2023-05-07T06:38:34;13.52;;;9.45;;
67585;SDS011;55785;47.946;20.540;2023-05-07T06:41:00;11.00;;;8.88;;
67585;SDS011;55785;47.946;20.540;2023-05-07T06:43:25;12.90;;;8.70;;
67585;SDS011;55785;47.946;20.540;2023-05-07T06:45:51;11.95;;;8.73;;
67585;SDS011;55785;47.946;20.540;2023-05-07T06:48:16;12.18;;;8.32;;
67585;SDS011;55785;47.946;20.540;2023-05-07T06:50:41;11.65;;;7.95;;
67585;SDS011;55785;47.946;20.540;2023-05-07T06:53:07;10.30;;;7.32;;
67585;SDS011;55785;47.946;20.540;2023-05-07T06:55:32;11.20;;;7.95;;
67585;SDS011;55785;47.946;20.540;2023-05-07T06:57:57;8.52;;;6.80;;
67585;SDS011;55785;47.946;20.540;2023-05-07T07:00:23;9.93;;;6.88;;
67585;SDS011;55785;47.946;20.540;2023-05-07T07:02:48;10.35;;;7.30;;
67585;SDS011;55785;47.946;20.540;2023-05-07T07:05:13;10.98;;;6.85;;
67585;SDS011;55785;47.946;20.540;2023-05-07T07:07:39;7.78;;;5.47;;
67585;SDS011;55785;47.946;20.540;2023-05-07T07:10:04;7.57;;;5.72;;
67585;SDS011;55785;47.946;20.540;2023-05-07T07:12:30;7.20;;;5.22;;
67585;SDS011;55785;47.946;20.540;2023-05-07T07:14:55;6.28;;;5.07;;
67585;SDS011;55785;47.946;20.540;2023-05-07T07:17:21;6.85;;;5.00;;
67585;SDS011;55785;47.946;20.540;2023-05-07T07:19:46;7.15;;;4.90;;
67585;SDS011;55785;47.946;20.540;2023-05-07T07:22:11;6.97;;;4.55;;
67585;SDS011;55785;47.946;20.540;2023-05-07T07:24:37;6.70;;;4.70;;
67585;SDS011;55785;47.946;20.540;2023-05-07T07:27:02;8.02;;;4.78;;
67585;SDS011;55785;47.946;20.540;2023-05-07T07:29:27;8.48;;;4.32;;
67585;SDS011;55785;47.946;20.540;2023-05-07T07:31:53;5.25;;;4.13;;
67585;SDS011;55785;47.946;20.540;2023-05-07T07:34:18;6.22;;;4.22;;
67585;SDS011;55785;47.946;20.540;2023-05-07T07:36:43;5.15;;;4.03;;
67585;SDS011;55785;47.946;20.540;2023-05-07T07:39:09;5.65;;;4.03;;
67585;SDS011;55785;47.946;20.540;2023-05-07T07:41:34;6.10;;;4.40;;
67585;SDS011;55785;47.946;20.540;2023-05-07T07:43:59;8.15;;;4.63;;
67585;SDS011;55785;47.946;20.540;2023-05-07T07:46:25;6.07;;;4.03;;
67585;SDS011;55785;47.946;20.540;2023-05-07T07:48:50;4.50;;;3.60;;
67585;SDS011;55785;47.946;20.540;2023-05-07T07:51:15;4.57;;;3.92;;
67585;SDS011;55785;47.946;20.540;2023-05-07T07:53:40;5.00;;;3.60;;
67585;SDS011;55785;47.946;20.540;2023-05-07T07:56:06;5.20;;;4.15;;
67585;SDS011;55785;47.946;20.540;2023-05-07T07:58:31;15.95;;;5.57;;
67585;SDS011;55785;47.946;20.540;2023-05-07T08:00:56;5.75;;;3.92;;
67585;SDS011;55785;47.946;20.540;2023-05-07T08:03:22;4.72;;;3.40;;
67585;SDS011;55785;47.946;20.540;2023-05-07T08:05:47;7.10;;;4.20;;
67585;SDS011;55785;47.946;20.540;2023-05-07T08:08:12;4.28;;;3.20;;
67585;SDS011;55785;47.946;20.540;2023-05-07T08:10:38;6.60;;;3.80;;
67585;SDS011;55785;47.946;20.540;2023-05-07T08:13:03;7.78;;;3.28;;
67585;SDS011;55785;47.946;20.540;2023-05-07T08:15:29;7.35;;;3.22;;
67585;SDS011;55785;47.946;20.540;2023-05-07T08:17:54;4.65;;;3.10;;
67585;SDS011;55785;47.946;20.540;2023-05-07T08:20:19;6.22;;;3.38;;
67585;SDS011;55785;47.946;20.540;2023-05-07T08:22:45;4.95;;;3.08;;
67585;SDS011;55785;47.946;20.540;2023-05-07T08:25:10;3.65;;;3.22;;
67585;SDS011;55785;47.946;20.540;2023-05-07T08:27:35;5.07;;;3.80;;
67585;SDS011;55785;47.946;20.540;2023-05-07T08:30:01;5.28;;;3.63;;
67585;SDS011;55785;47.946;20.540;2023-05-07T08:32:27;5.25;;;3.20;;
67585;SDS011;55785;47.946;20.540;2023-05-07T08:34:52;5.05;;;3.28;;
67585;SDS011;55785;47.946;20.540;2023-05-07T08:37:17;3.60;;;3.13;;
67585;SDS011;55785;47.946;20.540;2023-05-07T08:39:43;4.50;;;3.20;;
67585;SDS011;55785;47.946;20.540;2023-05-07T08:42:09;4.45;;;3.30;;
67585;SDS011;55785;47.946;20.540;2023-05-07T08:44:36;5.72;;;3.47;;
67585;SDS011;55785;47.946;20.540;2023-05-07T08:47:06;5.40;;;3.60;;
67585;SDS011;55785;47.946;20.540;2023-05-07T08:49:32;3.88;;;3.05;;
67585;SDS011;55785;47.946;20.540;2023-05-07T08:51:58;8.05;;;3.50;;
67585;SDS011;55785;47.946;20.540;2023-05-07T08:54:24;4.82;;;3.58;;
67585;SDS011;55785;47.946;20.540;2023-05-07T08:56:50;4.93;;;3.83;;
67585;SDS011;55785;47.946;20.540;2023-05-07T08:59:15;6.68;;;3.70;;
67585;SDS011;55785;47.946;20.540;2023-05-07T09:01:40;4.85;;;3.25;;
67585;SDS011;55785;47.946;20.540;2023-05-07T09:04:06;6.10;;;3.60;;
67585;SDS011;55785;47.946;20.540;2023-05-07T09:06:32;5.65;;;3.60;;
67585;SDS011;55785;47.946;20.540;2023-05-07T09:08:58;5.72;;;3.22;;
67585;SDS011;55785;47.946;20.540;2023-05-07T09:11:24;6.18;;;3.13;;
67585;SDS011;55785;47.946;20.540;2023-05-07T09:13:56;4.55;;;3.20;;
67585;SDS011;55785;47.946;20.540;2023-05-07T09:16:22;4.72;;;2.78;;
67585;SDS011;55785;47.946;20.540;2023-05-07T09:18:50;3.97;;;2.90;;
67585;SDS011;55785;47.946;20.540;2023-05-07T09:21:17;3.33;;;2.80;;
67585;SDS011;55785;47.946;20.540;2023-05-07T09:23:43;3.75;;;2.88;;
67585;SDS011;55785;47.946;20.540;2023-05-07T09:26:09;3.47;;;2.78;;
67585;SDS011;55785;47.946;20.540;2023-05-07T09:28:34;3.50;;;2.63;;
67585;SDS011;55785;47.946;20.540;2023-05-07T09:30:59;6.05;;;3.17;;
67585;SDS011;55785;47.946;20.540;2023-05-07T09:33:26;4.82;;;2.95;;
67585;SDS011;55785;47.946;20.540;2023-05-07T09:35:53;4.05;;;3.03;;
67585;SDS011;55785;47.946;20.540;2023-05-07T09:38:19;4.40;;;3.20;;
67585;SDS011;55785;47.946;20.540;2023-05-07T09:40:46;5.18;;;3.33;;
67585;SDS011;55785;47.946;20.540;2023-05-07T09:43:12;3.78;;;3.10;;
67585;SDS011;55785;47.946;20.540;2023-05-07T09:45:38;5.80;;;3.22;;
67585;SDS011;55785;47.946;20.540;2023-05-07T09:48:04;3.35;;;2.90;;
67585;SDS011;55785;47.946;20.540;2023-05-07T09:50:36;5.25;;;3.60;;
67585;SDS011;55785;47.946;20.540;2023-05-07T09:53:13;6.72;;;3.13;;
67585;SDS011;55785;47.946;20.540;2023-05-07T09:55:39;4.45;;;2.92;;
67585;SDS011;55785;47.946;20.540;2023-05-07T09:58:04;5.65;;;3.30;;
67585;SDS011;55785;47.946;20.540;2023-05-07T10:00:31;5.28;;;3.00;;
67585;SDS011;55785;47.946;20.540;2023-05-07T10:02:57;3.55;;;2.67;;
67585;SDS011;55785;47.946;20.540;2023-05-07T10:05:23;4.47;;;2.97;;
67585;SDS011;55785;47.946;20.540;2023-05-07T10:07:50;3.60;;;2.97;;
67585;SDS011;55785;47.946;20.540;2023-05-07T10:10:15;4.32;;;2.95;;
67585;SDS011;55785;47.946;20.540;2023-05-07T10:12:42;3.80;;;2.75;;
67585;SDS011;55785;47.946;20.540;2023-05-07T10:15:08;3.42;;;2.70;;
67585;SDS011;55785;47.946;20.540;2023-05-07T10:17:35;4.70;;;3.10;;
67585;SDS011;55785;47.946;20.540;2023-05-07T10:20:01;5.00;;;2.60;;
67585;SDS011;55785;47.946;20.540;2023-05-07T10:22:26;3.70;;;2.60;;
67585;SDS011;55785;47.946;20.540;2023-05-07T10:24:53;3.65;;;2.83;;
67585;SDS011;55785;47.946;20.540;2023-05-07T10:27:22;3.42;;;2.40;;
67585;SDS011;55785;47.946;20.540;2023-05-07T10:30:22;4.25;;;2.50;;
67585;SDS011;55785;47.946;20.540;2023-05-07T10:32:45;3.70;;;3.22;;
67585;SDS011;55785;47.946;20.540;2023-05-07T10:35:15;4.28;;;3.30;;
67585;SDS011;55785;47.946;20.540;2023-05-07T10:37:42;5.18;;;4.03;;
67585;SDS011;55785;47.946;20.540;2023-05-07T10:40:09;6.07;;;4.47;;
67585;SDS011;55785;47.946;20.540;2023-05-07T10:42:37;6.05;;;4.03;;
67585;SDS011;55785;47.946;20.540;2023-05-07T10:45:14;6.43;;;3.70;;
67585;SDS011;55785;47.946;20.540;2023-05-07T10:50:31;4.10;;;3.22;;
67585;SDS011;55785;47.946;20.540;2023-05-07T10:55:44;4.70;;;2.92;;
67585;SDS011;55785;47.946;20.540;2023-05-07T11:00:46;3.30;;;2.70;;
67585;SDS011;55785;47.946;20.540;2023-05-07T11:03:11;4.75;;;4.00;;
67585;SDS011;55785;47.946;20.540;2023-05-07T11:05:37;5.90;;;4.18;;
67585;SDS011;55785;47.946;20.540;2023-05-07T11:08:03;6.63;;;3.78;;
67585;SDS011;55785;47.946;20.540;2023-05-07T11:11:11;4.53;;;3.88;;
67585;SDS011;55785;47.946;20.540;2023-05-07T11:13:19;3.33;;;2.70;;
67585;SDS011;55785;47.946;20.540;2023-05-07T11:16:20;4.72;;;2.78;;
67585;SDS011;55785;47.946;20.540;2023-05-07T11:18:48;3.83;;;2.70;;
67585;SDS011;55785;47.946;20.540;2023-05-07T11:21:30;3.35;;;2.60;;
67585;SDS011;55785;47.946;20.540;2023-05-07T11:23:56;4.90;;;2.67;;
67585;SDS011;55785;47.946;20.540;2023-05-07T11:26:22;4.47;;;2.83;;
67585;SDS011;55785;47.946;20.540;2023-05-07T11:28:47;3.20;;;2.47;;
67585;SDS011;55785;47.946;20.540;2023-05-07T11:31:13;4.43;;;2.80;;
67585;SDS011;55785;47.946;20.540;2023-05-07T11:33:38;3.45;;;3.00;;
67585;SDS011;55785;47.946;20.540;2023-05-07T11:36:04;2.97;;;2.45;;
67585;SDS011;55785;47.946;20.540;2023-05-07T11:38:30;3.30;;;2.60;;
67585;SDS011;55785;47.946;20.540;2023-05-07T11:40:59;5.50;;;2.92;;
67585;SDS011;55785;47.946;20.540;2023-05-07T11:43:25;8.02;;;2.85;;
67585;SDS011;55785;47.946;20.540;2023-05-07T11:45:50;3.20;;;2.80;;
67585;SDS011;55785;47.946;20.540;2023-05-07T11:48:16;3.00;;;2.67;;
67585;SDS011;55785;47.946;20.540;2023-05-07T11:53:43;3.47;;;2.55;;
67585;SDS011;55785;47.946;20.540;2023-05-07T11:56:09;3.75;;;2.80;;
67585;SDS011;55785;47.946;20.540;2023-05-07T11:58:36;3.30;;;2.60;;
67585;SDS011;55785;47.946;20.540;2023-05-07T12:01:02;3.67;;;2.50;;
67585;SDS011;55785;47.946;20.540;2023-05-07T12:03:28;3.40;;;2.60;;
67585;SDS011;55785;47.946;20.540;2023-05-07T12:05:53;4.32;;;2.50;;
67585;SDS011;55785;47.946;20.540;2023-05-07T12:08:19;3.78;;;2.90;;
67585;SDS011;55785;47.946;20.540;2023-05-07T12:10:46;3.75;;;3.00;;
67585;SDS011;55785;47.946;20.540;2023-05-07T12:13:18;3.22;;;2.85;;
67585;SDS011;55785;47.946;20.540;2023-05-07T12:15:51;4.50;;;2.85;;
67585;SDS011;55785;47.946;20.540;2023-05-07T12:18:17;3.78;;;2.80;;
67585;SDS011;55785;47.946;20.540;2023-05-07T12:20:43;4.70;;;3.05;;
67585;SDS011;55785;47.946;20.540;2023-05-07T12:23:08;4.38;;;2.80;;
67585;SDS011;55785;47.946;20.540;2023-05-07T12:25:35;3.88;;;2.80;;
67585;SDS011;55785;47.946;20.540;2023-05-07T12:28:02;7.82;;;3.03;;
67585;SDS011;55785;47.946;20.540;2023-05-07T12:30:27;5.68;;;2.80;;
67585;SDS011;55785;47.946;20.540;2023-05-07T12:32:53;6.63;;;3.42;;
67585;SDS011;55785;47.946;20.540;2023-05-07T12:35:28;6.13;;;3.70;;
67585;SDS011;55785;47.946;20.540;2023-05-07T12:37:55;5.45;;;3.50;;
67585;SDS011;55785;47.946;20.540;2023-05-07T12:40:21;5.78;;;3.53;;
67585;SDS011;55785;47.946;20.540;2023-05-07T12:42:46;4.70;;;3.65;;
67585;SDS011;55785;47.946;20.540;2023-05-07T12:45:17;5.13;;;3.08;;
67585;SDS011;55785;47.946;20.540;2023-05-07T12:47:46;6.32;;;3.90;;
67585;SDS011;55785;47.946;20.540;2023-05-07T12:50:15;6.43;;;3.75;;
67585;SDS011;55785;47.946;20.540;2023-05-07T12:52:41;6.93;;;4.18;;
67585;SDS011;55785;47.946;20.540;2023-05-07T12:55:12;5.40;;;3.88;;
67585;SDS011;55785;47.946;20.540;2023-05-07T12:57:43;5.50;;;4.00;;
67585;SDS011;55785;47.946;20.540;2023-05-07T13:00:12;5.40;;;3.35;;
67585;SDS011;55785;47.946;20.540;2023-05-07T13:02:39;4.13;;;3.28;;
67585;SDS011;55785;47.946;20.540;2023-05-07T13:05:05;3.88;;;3.28;;
67585;SDS011;55785;47.946;20.540;2023-05-07T13:07:31;6.65;;;3.63;;
67585;SDS011;55785;47.946;20.540;2023-05-07T13:09:56;7.97;;;3.92;;
67585;SDS011;55785;47.946;20.540;2023-05-07T13:12:21;4.93;;;4.13;;
67585;SDS011;55785;47.946;20.540;2023-05-07T13:14:47;4.68;;;4.13;;
67585;SDS011;55785;47.946;20.540;2023-05-07T13:17:12;5.95;;;4.18;;
67585;SDS011;55785;47.946;20.540;2023-05-07T13:19:37;7.47;;;4.50;;
67585;SDS011;55785;47.946;20.540;2023-05-07T13:22:03;5.38;;;4.10;;
67585;SDS011;55785;47.946;20.540;2023-05-07T13:24:28;6.78;;;4.57;;
67585;SDS011;55785;47.946;20.540;2023-05-07T13:26:54;7.63;;;3.78;;
67585;SDS011;55785;47.946;20.540;2023-05-07T13:29:19;4.18;;;3.78;;
67585;SDS011;55785;47.946;20.540;2023-05-07T13:31:45;5.38;;;3.92;;
67585;SDS011;55785;47.946;20.540;2023-05-07T13:34:10;4.18;;;3.72;;
67585;SDS011;55785;47.946;20.540;2023-05-07T13:36:35;4.70;;;3.67;;
67585;SDS011;55785;47.946;20.540;2023-05-07T13:39:00;4.78;;;3.28;;
67585;SDS011;55785;47.946;20.540;2023-05-07T13:41:26;6.22;;;3.30;;
67585;SDS011;55785;47.946;20.540;2023-05-07T13:43:51;4.68;;;3.33;;
67585;SDS011;55785;47.946;20.540;2023-05-07T13:46:17;3.50;;;3.20;;
67585;SDS011;55785;47.946;20.540;2023-05-07T13:48:42;5.97;;;3.28;;
67585;SDS011;55785;47.946;20.540;2023-05-07T13:51:07;5.22;;;3.13;;
67585;SDS011;55785;47.946;20.540;2023-05-07T13:53:33;3.47;;;3.13;;
67585;SDS011;55785;47.946;20.540;2023-05-07T13:55:58;6.65;;;3.33;;
67585;SDS011;55785;47.946;20.540;2023-05-07T13:58:23;3.45;;;2.65;;
67585;SDS011;55785;47.946;20.540;2023-05-07T14:00:48;3.17;;;2.40;;
67585;SDS011;55785;47.946;20.540;2023-05-07T14:03:14;3.65;;;2.58;;
67585;SDS011;55785;47.946;20.540;2023-05-07T14:05:39;5.60;;;3.03;;
67585;SDS011;55785;47.946;20.540;2023-05-07T14:08:04;7.47;;;3.65;;
67585;SDS011;55785;47.946;20.540;2023-05-07T14:10:30;8.63;;;4.25;;
67585;SDS011;55785;47.946;20.540;2023-05-07T14:12:55;7.32;;;4.57;;
67585;SDS011;55785;47.946;20.540;2023-05-07T14:15:20;6.97;;;4.53;;
67585;SDS011;55785;47.946;20.540;2023-05-07T14:17:46;8.88;;;4.85;;
67585;SDS011;55785;47.946;20.540;2023-05-07T14:20:11;8.88;;;4.70;;
67585;SDS011;55785;47.946;20.540;2023-05-07T14:22:37;6.13;;;4.30;;
67585;SDS011;55785;47.946;20.540;2023-05-07T14:25:02;5.93;;;4.30;;
67585;SDS011;55785;47.946;20.540;2023-05-07T14:27:28;8.05;;;4.28;;
67585;SDS011;55785;47.946;20.540;2023-05-07T14:29:54;8.15;;;4.63;;
67585;SDS011;55785;47.946;20.540;2023-05-07T14:32:19;8.75;;;4.07;;
67585;SDS011;55785;47.946;20.540;2023-05-07T14:34:45;12.15;;;5.15;;
67585;SDS011;55785;47.946;20.540;2023-05-07T14:37:11;7.32;;;4.50;;
67585;SDS011;55785;47.946;20.540;2023-05-07T14:39:36;7.63;;;4.47;;